sensor_id;sensor_type;location;lat;lon;timestamp;pressure;altitude;pressure_sealevel;temperature;humidity
59939;BME280;45801;51.810;19.444;2023-09-19T00:00:43;98397.71;;;19.55;66.77
59939;BME280;45801;51.810;19.444;2023-09-19T00:03:33;98397.01;;;19.54;66.67
59939;BME280;45801;51.810;19.444;2023-09-19T00:05:59;98393.11;;;19.54;66.69
59939;BME280;45801;51.810;19.444;2023-09-19T00:08:26;98388.84;;;19.54;66.89
59939;BME280;45801;51.810;19.444;2023-09-19T00:10:54;98390.98;;;19.53;66.82
59939;BME280;45801;51.810;19.444;2023-09-19T00:13:21;98388.30;;;19.54;66.62
59939;BME280;45801;51.810;19.444;2023-09-19T00:15:48;98390.08;;;19.53;66.71
59939;BME280;45801;51.810;19.444;2023-09-19T00:18:15;98390.97;;;19.54;66.94
59939;BME280;45801;51.810;19.444;2023-09-19T00:20:43;98391.70;;;19.53;66.87
59939;BME280;45801;51.810;19.444;2023-09-19T00:23:14;98386.90;;;19.52;66.86
59939;BME280;45801;51.810;19.444;2023-09-19T00:25:41;98383.17;;;19.53;66.84
59939;BME280;45801;51.810;19.444;2023-09-19T00:28:08;98386.36;;;19.54;66.64
59939;BME280;45801;51.810;19.444;2023-09-19T00:30:36;98379.06;;;19.55;66.87
59939;BME280;45801;51.810;19.444;2023-09-19T00:33:05;98378.52;;;19.56;66.76
59939;BME280;45801;51.810;19.444;2023-09-19T00:35:34;98377.81;;;19.58;66.71
59939;BME280;45801;51.810;19.444;2023-09-19T00:38:01;98375.13;;;19.60;66.68
59939;BME280;45801;51.810;19.444;2023-09-19T00:40:29;98372.98;;;19.62;66.55
59939;BME280;45801;51.810;19.444;2023-09-19T00:42:59;98370.31;;;19.64;66.60
59939;BME280;45801;51.810;19.444;2023-09-19T00:45:29;98368.34;;;19.65;66.66
59939;BME280;45801;51.810;19.444;2023-09-19T00:47:55;98366.95;;;19.64;66.67
59939;BME280;45801;51.810;19.444;2023-09-19T00:50:25;98364.42;;;19.66;66.54
59939;BME280;45801;51.810;19.444;2023-09-19T00:52:54;98359.62;;;19.67;66.39
59939;BME280;45801;51.810;19.444;2023-09-19T00:55:23;98356.61;;;19.68;66.45
59939;BME280;45801;51.810;19.444;2023-09-19T00:57:51;98356.95;;;19.69;66.34
59939;BME280;45801;51.810;19.444;2023-09-19T01:00:18;98360.67;;;19.70;66.20
59939;BME280;45801;51.810;19.444;2023-09-19T01:02:47;98359.06;;;19.71;66.62
59939;BME280;45801;51.810;19.444;2023-09-19T01:05:14;98357.27;;;19.72;66.65
59939;BME280;45801;51.810;19.444;2023-09-19T01:07:41;98354.41;;;19.74;66.24
59939;BME280;45801;51.810;19.444;2023-09-19T01:10:10;98352.30;;;19.74;66.40
59939;BME280;45801;51.810;19.444;2023-09-19T01:18:35;98348.40;;;19.72;66.48
59939;BME280;45801;51.810;19.444;2023-09-19T01:27:17;98338.62;;;19.71;66.94
59939;BME280;45801;51.810;19.444;2023-09-19T01:29:49;98336.50;;;19.70;66.69
59939;BME280;45801;51.810;19.444;2023-09-19T01:32:19;98330.81;;;19.70;66.47
59939;BME280;45801;51.810;19.444;2023-09-19T01:34:54;98333.67;;;19.70;66.46
59939;BME280;45801;51.810;19.444;2023-09-19T01:37:23;98331.35;;;19.70;66.38
59939;BME280;45801;51.810;19.444;2023-09-19T01:40:02;98330.11;;;19.70;66.10
59939;BME280;45801;51.810;19.444;2023-09-19T01:42:45;98332.59;;;19.71;66.15
59939;BME280;45801;51.810;19.444;2023-09-19T01:45:22;98333.45;;;19.73;66.21
59939;BME280;45801;51.810;19.444;2023-09-19T01:47:55;98337.17;;;19.75;65.97
59939;BME280;45801;51.810;19.444;2023-09-19T01:50:38;98335.95;;;19.77;66.17
59939;BME280;45801;51.810;19.444;2023-09-19T01:53:30;98335.93;;;19.77;66.00
59939;BME280;45801;51.810;19.444;2023-09-19T01:56:00;98333.09;;;19.79;66.63
59939;BME280;45801;51.810;19.444;2023-09-19T01:58:41;98330.42;;;19.78;66.84
59939;BME280;45801;51.810;19.444;2023-09-19T02:01:11;98326.49;;;19.81;66.42
59939;BME280;45801;51.810;19.444;2023-09-19T02:03:39;98319.36;;;19.85;66.53
59939;BME280;45801;51.810;19.444;2023-09-19T02:06:07;98317.54;;;19.90;66.66
59939;BME280;45801;51.810;19.444;2023-09-19T02:08:37;98315.01;;;19.94;66.57
59939;BME280;45801;51.810;19.444;2023-09-19T02:11:04;98310.52;;;19.99;66.56
59939;BME280;45801;51.810;19.444;2023-09-19T02:13:32;98306.58;;;20.03;66.33
59939;BME280;45801;51.810;19.444;2023-09-19T02:15:59;98305.48;;;20.07;66.16
59939;BME280;45801;51.810;19.444;2023-09-19T02:18:26;98306.54;;;20.07;65.86
59939;BME280;45801;51.810;19.444;2023-09-19T02:20:54;98309.39;;;20.06;65.97
59939;BME280;45801;51.810;19.444;2023-09-19T02:23:23;98311.56;;;20.02;66.05
59939;BME280;45801;51.810;19.444;2023-09-19T02:25:54;98312.88;;;19.95;66.17
59939;BME280;45801;51.810;19.444;2023-09-19T02:28:21;98304.60;;;19.87;66.31
59939;BME280;45801;51.810;19.444;2023-09-19T02:30:49;98301.08;;;19.82;66.33
59939;BME280;45801;51.810;19.444;2023-09-19T02:33:16;98300.02;;;19.80;66.32
59939;BME280;45801;51.810;19.444;2023-09-19T02:35:45;98299.83;;;19.83;66.44
59939;BME280;45801;51.810;19.444;2023-09-19T02:38:12;98305.29;;;19.89;66.08
59939;BME280;45801;51.810;19.444;2023-09-19T02:40:38;98302.41;;;19.93;66.31
59939;BME280;45801;51.810;19.444;2023-09-19T02:43:05;98300.05;;;19.97;66.00
59939;BME280;45801;51.810;19.444;2023-09-19T02:45:32;98304.33;;;19.96;66.00
59939;BME280;45801;51.810;19.444;2023-09-19T02:47:58;98308.65;;;19.90;66.36
59939;BME280;45801;51.810;19.444;2023-09-19T02:50:25;98308.91;;;19.82;66.47
59939;BME280;45801;51.810;19.444;2023-09-19T02:52:51;98300.58;;;19.75;66.60
59939;BME280;45801;51.810;19.444;2023-09-19T02:55:20;98300.10;;;19.69;66.81
59939;BME280;45801;51.810;19.444;2023-09-19T02:57:52;98298.33;;;19.67;66.94
59939;BME280;45801;51.810;19.444;2023-09-19T03:00:21;98298.64;;;19.75;66.74
59939;BME280;45801;51.810;19.444;2023-09-19T03:02:53;98297.36;;;19.82;66.81
59939;BME280;45801;51.810;19.444;2023-09-19T03:05:22;98293.46;;;19.80;66.80
59939;BME280;45801;51.810;19.444;2023-09-19T03:07:50;98293.51;;;19.72;67.16
59939;BME280;45801;51.810;19.444;2023-09-19T03:10:20;98292.15;;;19.63;67.32
59939;BME280;45801;51.810;19.444;2023-09-19T03:12:49;98290.78;;;19.56;67.63
59939;BME280;45801;51.810;19.444;2023-09-19T03:15:16;98292.08;;;19.50;67.45
59939;BME280;45801;51.810;19.444;2023-09-19T03:17:47;98291.04;;;19.46;67.44
59939;BME280;45801;51.810;19.444;2023-09-19T03:20:14;98292.84;;;19.42;67.91
59939;BME280;45801;51.810;19.444;2023-09-19T03:22:44;98289.15;;;19.37;68.18
59939;BME280;45801;51.810;19.444;2023-09-19T03:25:10;98285.44;;;19.34;68.14
59939;BME280;45801;51.810;19.444;2023-09-19T03:27:39;98282.26;;;19.32;67.96
59939;BME280;45801;51.810;19.444;2023-09-19T03:30:06;98279.61;;;19.30;68.22
59939;BME280;45801;51.810;19.444;2023-09-19T03:32:35;98276.96;;;19.28;68.37
59939;BME280;45801;51.810;19.444;2023-09-19T03:35:03;98277.88;;;19.25;68.00
59939;BME280;45801;51.810;19.444;2023-09-19T03:37:32;98274.70;;;19.22;68.22
59939;BME280;45801;51.810;19.444;2023-09-19T03:39:59;98273.63;;;19.22;68.02
59939;BME280;45801;51.810;19.444;2023-09-19T03:42:31;98275.77;;;19.22;67.77
59939;BME280;45801;51.810;19.444;2023-09-19T03:44:58;98278.42;;;19.22;68.17
59939;BME280;45801;51.810;19.444;2023-09-19T03:47:26;98280.21;;;19.21;68.05
59939;BME280;45801;51.810;19.444;2023-09-19T03:49:52;98274.89;;;19.20;67.53
59939;BME280;45801;51.810;19.444;2023-09-19T03:52:19;98269.73;;;19.21;67.76
59939;BME280;45801;51.810;19.444;2023-09-19T03:54:45;98268.32;;;19.20;68.10
59939;BME280;45801;51.810;19.444;2023-09-19T03:57:12;98264.60;;;19.18;67.95
59939;BME280;45801;51.810;19.444;2023-09-19T03:59:42;98267.27;;;19.18;67.95
59939;BME280;45801;51.810;19.444;2023-09-19T04:02:09;98262.48;;;19.17;67.65
59939;BME280;45801;51.810;19.444;2023-09-19T04:04:48;98260.35;;;19.16;67.87
59939;BME280;45801;51.810;19.444;2023-09-19T04:07:16;98260.88;;;19.15;68.00
59939;BME280;45801;51.810;19.444;2023-09-19T04:09:43;98270.30;;;19.14;68.06
59939;BME280;45801;51.810;19.444;2023-09-19T04:12:09;98274.05;;;19.12;68.40
59939;BME280;45801;51.810;19.444;2023-09-19T04:14:36;98273.73;;;19.10;68.49
59939;BME280;45801;51.810;19.444;2023-09-19T04:17:02;98268.93;;;19.09;68.28
59939;BME280;45801;51.810;19.444;2023-09-19T04:19:29;98268.94;;;19.08;68.07
59939;BME280;45801;51.810;19.444;2023-09-19T04:21:56;98273.90;;;19.08;67.83
59939;BME280;45801;51.810;19.444;2023-09-19T04:24:23;98275.68;;;19.08;67.87
59939;BME280;45801;51.810;19.444;2023-09-19T04:26:49;98275.86;;;19.08;67.67
59939;BME280;45801;51.810;19.444;2023-09-19T04:29:17;98278.52;;;19.08;67.89
59939;BME280;45801;51.810;19.444;2023-09-19T04:31:45;98278.33;;;19.08;67.59
59939;BME280;45801;51.810;19.444;2023-09-19T04:34:13;98274.79;;;19.07;68.15
59939;BME280;45801;51.810;19.444;2023-09-19T04:36:43;98276.92;;;19.05;68.64
59939;BME280;45801;51.810;19.444;2023-09-19T04:39:10;98279.23;;;19.03;68.90
59939;BME280;45801;51.810;19.444;2023-09-19T04:41:39;98282.27;;;19.03;68.51
59939;BME280;45801;51.810;19.444;2023-09-19T04:44:07;98287.75;;;19.06;68.15
59939;BME280;45801;51.810;19.444;2023-09-19T04:46:34;98288.82;;;19.07;68.31
59939;BME280;45801;51.810;19.444;2023-09-19T04:49:01;98293.77;;;19.09;68.41
59939;BME280;45801;51.810;19.444;2023-09-19T04:51:28;98295.55;;;19.09;68.02
59939;BME280;45801;51.810;19.444;2023-09-19T04:54:00;98296.43;;;19.11;67.93
59939;BME280;45801;51.810;19.444;2023-09-19T04:56:27;98296.08;;;19.10;68.14
59939;BME280;45801;51.810;19.444;2023-09-19T04:58:56;98295.20;;;19.11;68.03
59939;BME280;45801;51.810;19.444;2023-09-19T05:01:26;98295.89;;;19.11;68.69
59939;BME280;45801;51.810;19.444;2023-09-19T05:03:53;98296.95;;;19.11;68.79
59939;BME280;45801;51.810;19.444;2023-09-19T05:06:20;98297.67;;;19.10;68.58
59939;BME280;45801;51.810;19.444;2023-09-19T05:08:50;98298.02;;;19.10;67.83
59939;BME280;45801;51.810;19.444;2023-09-19T05:11:20;98303.00;;;19.11;67.97
59939;BME280;45801;51.810;19.444;2023-09-19T05:13:49;98302.29;;;19.11;68.33
59939;BME280;45801;51.810;19.444;2023-09-19T05:16:19;98310.27;;;19.11;68.50
59939;BME280;45801;51.810;19.444;2023-09-19T05:18:46;98312.94;;;19.11;68.60
59939;BME280;45801;51.810;19.444;2023-09-19T05:21:12;98310.98;;;19.10;68.99
59939;BME280;45801;51.810;19.444;2023-09-19T05:23:39;98307.42;;;19.11;68.32
59939;BME280;45801;51.810;19.444;2023-09-19T05:26:06;98304.40;;;19.13;68.59
59939;BME280;45801;51.810;19.444;2023-09-19T05:28:32;98310.79;;;19.13;69.47
59939;BME280;45801;51.810;19.444;2023-09-19T05:31:01;98319.65;;;19.14;69.69
59939;BME280;45801;51.810;19.444;2023-09-19T05:33:29;98322.85;;;19.14;69.81
59939;BME280;45801;51.810;19.444;2023-09-19T05:35:57;98323.56;;;19.13;70.63
59939;BME280;45801;51.810;19.444;2023-09-19T05:38:25;98331.73;;;19.13;71.85
59939;BME280;45801;51.810;19.444;2023-09-19T05:40:53;98339.55;;;19.12;72.26
59939;BME280;45801;51.810;19.444;2023-09-19T05:43:20;98340.98;;;19.09;73.71
59939;BME280;45801;51.810;19.444;2023-09-19T05:45:47;98331.05;;;19.05;75.19
59939;BME280;45801;51.810;19.444;2023-09-19T05:48:14;98314.59;;;18.97;77.29
59939;BME280;45801;51.810;19.444;2023-09-19T05:50:42;98315.70;;;18.90;75.98
59939;BME280;45801;51.810;19.444;2023-09-19T05:53:09;98315.52;;;18.86;76.00
59939;BME280;45801;51.810;19.444;2023-09-19T05:55:39;98318.91;;;18.84;76.85
59939;BME280;45801;51.810;19.444;2023-09-19T05:58:05;98332.21;;;18.81;77.29
59939;BME280;45801;51.810;19.444;2023-09-19T06:00:32;98343.21;;;18.79;76.83
59939;BME280;45801;51.810;19.444;2023-09-19T06:02:59;98350.15;;;18.78;77.23
59939;BME280;45801;51.810;19.444;2023-09-19T06:05:27;98355.11;;;18.77;77.57
59939;BME280;45801;51.810;19.444;2023-09-19T06:07:54;98350.34;;;18.73;78.87
59939;BME280;45801;51.810;19.444;2023-09-19T06:10:21;98347.51;;;18.69;79.38
59939;BME280;45801;51.810;19.444;2023-09-19T06:12:49;98348.94;;;18.66;79.56
59939;BME280;45801;51.810;19.444;2023-09-19T06:15:16;98352.84;;;18.64;79.54
59939;BME280;45801;51.810;19.444;2023-09-19T06:17:53;98350.55;;;18.64;79.34
59939;BME280;45801;51.810;19.444;2023-09-19T06:20:26;98353.19;;;18.64;78.74
59939;BME280;45801;51.810;19.444;2023-09-19T06:22:53;98354.08;;;18.66;78.60
59939;BME280;45801;51.810;19.444;2023-09-19T06:25:20;98349.29;;;18.66;79.37
59939;BME280;45801;51.810;19.444;2023-09-19T06:28:00;98350.54;;;18.65;79.80
59939;BME280;45801;51.810;19.444;2023-09-19T06:30:31;98348.41;;;18.64;80.23
59939;BME280;45801;51.810;19.444;2023-09-19T06:32:59;98345.05;;;18.62;80.08
59939;BME280;45801;51.810;19.444;2023-09-19T06:35:28;98345.94;;;18.59;80.50
59939;BME280;45801;51.810;19.444;2023-09-19T06:37:55;98353.05;;;18.58;80.12
59939;BME280;45801;51.810;19.444;2023-09-19T06:40:24;98349.30;;;18.58;80.18
59939;BME280;45801;51.810;19.444;2023-09-19T06:42:52;98351.79;;;18.59;80.22
59939;BME280;45801;51.810;19.444;2023-09-19T06:45:20;98356.94;;;18.61;80.59
59939;BME280;45801;51.810;19.444;2023-09-19T06:47:50;98369.34;;;18.60;81.44
59939;BME280;45801;51.810;19.444;2023-09-19T06:50:18;98371.48;;;18.59;81.20
59939;BME280;45801;51.810;19.444;2023-09-19T06:52:46;98371.66;;;18.60;81.82
59939;BME280;45801;51.810;19.444;2023-09-19T06:55:19;98374.66;;;18.61;82.07
59939;BME280;45801;51.810;19.444;2023-09-19T06:57:47;98381.59;;;18.61;82.14
59939;BME280;45801;51.810;19.444;2023-09-19T07:00:14;98387.44;;;18.62;82.02
59939;BME280;45801;51.810;19.444;2023-09-19T07:02:56;98389.73;;;18.64;82.08
59939;BME280;45801;51.810;19.444;2023-09-19T07:05:23;98393.29;;;18.64;82.55
59939;BME280;45801;51.810;19.444;2023-09-19T07:07:50;98398.78;;;18.64;82.14
59939;BME280;45801;51.810;19.444;2023-09-19T07:10:16;98404.27;;;18.66;81.83
59939;BME280;45801;51.810;19.444;2023-09-19T07:12:45;98411.73;;;18.67;81.75
59939;BME280;45801;51.810;19.444;2023-09-19T07:15:13;98414.02;;;18.69;81.50
59939;BME280;45801;51.810;19.444;2023-09-19T07:17:39;98418.11;;;18.68;81.75
59939;BME280;45801;51.810;19.444;2023-09-19T07:20:06;98420.58;;;18.68;82.33
59939;BME280;45801;51.810;19.444;2023-09-19T07:22:34;98422.55;;;18.68;82.60
59939;BME280;45801;51.810;19.444;2023-09-19T07:25:01;98425.55;;;18.68;82.71
59939;BME280;45801;51.810;19.444;2023-09-19T07:27:27;98431.92;;;18.68;82.85
59939;BME280;45801;51.810;19.444;2023-09-19T07:29:55;98434.60;;;18.68;82.41
59939;BME280;45801;51.810;19.444;2023-09-19T07:32:21;98438.86;;;18.71;82.38
59939;BME280;45801;51.810;19.444;2023-09-19T07:34:48;98438.14;;;18.73;82.23
59939;BME280;45801;51.810;19.444;2023-09-19T07:37:14;98441.52;;;18.75;82.73
59939;BME280;45801;51.810;19.444;2023-09-19T07:39:42;98443.63;;;18.77;82.51
59939;BME280;45801;51.810;19.444;2023-09-19T07:42:11;98446.65;;;18.78;82.87
59939;BME280;45801;51.810;19.444;2023-09-19T07:44:39;98447.70;;;18.78;83.30
59939;BME280;45801;51.810;19.444;2023-09-19T07:47:05;98448.41;;;18.78;84.14
59939;BME280;45801;51.810;19.444;2023-09-19T07:49:33;98451.97;;;18.79;84.43
59939;BME280;45801;51.810;19.444;2023-09-19T07:52:00;98451.61;;;18.78;83.38
59939;BME280;45801;51.810;19.444;2023-09-19T07:54:27;98454.09;;;18.80;82.65
59939;BME280;45801;51.810;19.444;2023-09-19T07:56:56;98451.78;;;18.83;82.76
59939;BME280;45801;51.810;19.444;2023-09-19T07:59:24;98451.26;;;18.87;82.49
59939;BME280;45801;51.810;19.444;2023-09-19T08:01:50;98454.82;;;18.90;82.39
59939;BME280;45801;51.810;19.444;2023-09-19T08:04:17;98456.58;;;18.92;82.21
59939;BME280;45801;51.810;19.444;2023-09-19T08:06:46;98456.94;;;18.94;82.23
59939;BME280;45801;51.810;19.444;2023-09-19T08:09:12;98455.86;;;18.95;82.38
59939;BME280;45801;51.810;19.444;2023-09-19T08:11:47;98456.39;;;18.95;83.15
59939;BME280;45801;51.810;19.444;2023-09-19T08:14:14;98458.88;;;18.96;82.98
59939;BME280;45801;51.810;19.444;2023-09-19T08:16:40;98459.59;;;18.97;83.21
59939;BME280;45801;51.810;19.444;2023-09-19T08:19:09;98458.52;;;18.97;83.32
59939;BME280;45801;51.810;19.444;2023-09-19T08:21:37;98457.63;;;18.99;84.10
59939;BME280;45801;51.810;19.444;2023-09-19T08:24:03;98456.55;;;19.01;83.91
59939;BME280;45801;51.810;19.444;2023-09-19T08:26:30;98454.59;;;19.03;84.42
59939;BME280;45801;51.810;19.444;2023-09-19T08:28:58;98457.96;;;19.04;85.80
59939;BME280;45801;51.810;19.444;2023-09-19T08:31:27;98459.37;;;19.06;85.77
59939;BME280;45801;51.810;19.444;2023-09-19T08:33:54;98461.33;;;19.09;84.95
59939;BME280;45801;51.810;19.444;2023-09-19T08:36:24;98465.39;;;19.13;84.41
59939;BME280;45801;51.810;19.444;2023-09-19T08:38:54;98462.36;;;19.16;84.16
59939;BME280;45801;51.810;19.444;2023-09-19T08:41:21;98461.98;;;19.20;84.04
59939;BME280;45801;51.810;19.444;2023-09-19T08:43:48;98453.11;;;19.22;83.47
59939;BME280;45801;51.810;19.444;2023-09-19T08:46:18;98446.70;;;19.26;83.41
59939;BME280;45801;51.810;19.444;2023-09-19T08:48:54;98447.58;;;19.30;83.52
59939;BME280;45801;51.810;19.444;2023-09-19T08:51:40;98444.71;;;19.34;83.75
59939;BME280;45801;51.810;19.444;2023-09-19T08:54:07;98441.16;;;19.35;83.88
59939;BME280;45801;51.810;19.444;2023-09-19T08:56:38;98441.70;;;19.35;84.97
59939;BME280;45801;51.810;19.444;2023-09-19T08:59:06;98443.10;;;19.36;84.42
59939;BME280;45801;51.810;19.444;2023-09-19T09:01:36;98446.11;;;19.37;85.17
59939;BME280;45801;51.810;19.444;2023-09-19T09:04:09;98449.83;;;19.39;85.61
59939;BME280;45801;51.810;19.444;2023-09-19T09:06:41;98446.09;;;19.41;84.73
59939;BME280;45801;51.810;19.444;2023-09-19T09:09:09;98442.89;;;19.44;84.65
59939;BME280;45801;51.810;19.444;2023-09-19T09:11:38;98443.94;;;19.50;83.41
59939;BME280;45801;51.810;19.444;2023-09-19T09:14:07;98443.02;;;19.55;82.76
59939;BME280;45801;51.810;19.444;2023-09-19T09:16:34;98441.02;;;19.59;82.80
59939;BME280;45801;51.810;19.444;2023-09-19T09:19:01;98444.74;;;19.62;82.44
59939;BME280;45801;51.810;19.444;2023-09-19T09:21:27;98442.23;;;19.66;82.07
59939;BME280;45801;51.810;19.444;2023-09-19T09:24:26;98442.18;;;19.75;81.47
59939;BME280;45801;51.810;19.444;2023-09-19T09:26:56;98444.46;;;19.85;80.92
59939;BME280;45801;51.810;19.444;2023-09-19T09:29:45;98445.48;;;19.94;80.75
59939;BME280;45801;51.810;19.444;2023-09-19T09:34:55;98454.25;;;20.09;80.46
59939;BME280;45801;51.810;19.444;2023-09-19T09:37:25;98457.41;;;20.14;80.27
59939;BME280;45801;51.810;19.444;2023-09-19T09:39:59;98463.06;;;20.20;79.99
59939;BME280;45801;51.810;19.444;2023-09-19T09:42:46;98462.48;;;20.24;79.60
59939;BME280;45801;51.810;19.444;2023-09-19T09:45:24;98462.11;;;20.26;80.18
59939;BME280;45801;51.810;19.444;2023-09-19T09:48:01;98463.54;;;20.26;80.92
59939;BME280;45801;51.810;19.444;2023-09-19T09:50:32;98462.84;;;20.25;80.14
59939;BME280;45801;51.810;19.444;2023-09-19T09:53:25;98464.42;;;20.26;80.36
59939;BME280;45801;51.810;19.444;2023-09-19T09:56:07;98461.75;;;20.27;79.98
59939;BME280;45801;51.810;19.444;2023-09-19T09:58:37;98465.46;;;20.29;79.60
59939;BME280;45801;51.810;19.444;2023-09-19T10:01:06;98467.55;;;20.33;79.62
59939;BME280;45801;51.810;19.444;2023-09-19T10:03:39;98467.73;;;20.37;79.54
59939;BME280;45801;51.810;19.444;2023-09-19T10:06:07;98470.55;;;20.39;79.24
59939;BME280;45801;51.810;19.444;2023-09-19T10:09:04;98476.39;;;20.41;79.23
59939;BME280;45801;51.810;19.444;2023-09-19T10:11:47;98481.00;;;20.44;78.93
59939;BME280;45801;51.810;19.444;2023-09-19T10:14:24;98489.51;;;20.48;78.69
59939;BME280;45801;51.810;19.444;2023-09-19T10:16:53;98493.04;;;20.51;79.23
59939;BME280;45801;51.810;19.444;2023-09-19T10:19:30;98497.84;;;20.49;78.87
59939;BME280;45801;51.810;19.444;2023-09-19T10:22:01;98500.87;;;20.49;78.37
59939;BME280;45801;51.810;19.444;2023-09-19T10:24:29;98506.23;;;20.47;78.67
59939;BME280;45801;51.810;19.444;2023-09-19T10:26:59;98507.84;;;20.46;77.88
59939;BME280;45801;51.810;19.444;2023-09-19T10:29:27;98511.94;;;20.44;78.16
59939;BME280;45801;51.810;19.444;2023-09-19T10:31:58;98515.17;;;20.42;78.29
59939;BME280;45801;51.810;19.444;2023-09-19T10:34:25;98518.02;;;20.42;78.24
59939;BME280;45801;51.810;19.444;2023-09-19T10:36:52;98523.73;;;20.38;79.01
59939;BME280;45801;51.810;19.444;2023-09-19T10:39:19;98527.31;;;20.36;78.34
59939;BME280;45801;51.810;19.444;2023-09-19T10:41:50;98524.84;;;20.34;77.82
59939;BME280;45801;51.810;19.444;2023-09-19T10:44:24;98528.93;;;20.30;77.89
59939;BME280;45801;51.810;19.444;2023-09-19T10:46:56;98530.91;;;20.28;78.28
59939;BME280;45801;51.810;19.444;2023-09-19T10:49:23;98534.30;;;20.27;78.15
59939;BME280;45801;51.810;19.444;2023-09-19T10:51:57;98537.30;;;20.31;78.71
59939;BME280;45801;51.810;19.444;2023-09-19T10:54:31;98535.32;;;20.34;78.47
59939;BME280;45801;51.810;19.444;2023-09-19T10:57:01;98536.73;;;20.36;78.41
59939;BME280;45801;51.810;19.444;2023-09-19T10:59:31;98538.86;;;20.37;78.37
59939;BME280;45801;51.810;19.444;2023-09-19T11:02:16;98537.09;;;20.36;78.84
59939;BME280;45801;51.810;19.444;2023-09-19T11:04:43;98537.48;;;20.30;78.94
59939;BME280;45801;51.810;19.444;2023-09-19T11:07:14;98538.39;;;20.26;78.92
59939;BME280;45801;51.810;19.444;2023-09-19T11:09:49;98542.30;;;20.26;78.81
59939;BME280;45801;51.810;19.444;2023-09-19T11:14:55;98545.50;;;20.27;78.75
59939;BME280;45801;51.810;19.444;2023-09-19T11:17:34;98551.56;;;20.25;79.14
59939;BME280;45801;51.810;19.444;2023-09-19T11:30:35;98562.63;;;20.22;78.97
59939;BME280;45801;51.810;19.444;2023-09-19T11:33:26;98562.06;;;20.24;78.35
59939;BME280;45801;51.810;19.444;2023-09-19T11:36:13;98557.80;;;20.24;78.18
59939;BME280;45801;51.810;19.444;2023-09-19T11:46:52;98565.58;;;20.28;77.97
59939;BME280;45801;51.810;19.444;2023-09-19T11:49:26;98562.88;;;20.33;77.99
59939;BME280;45801;51.810;19.444;2023-09-19T11:51:56;98560.21;;;20.36;77.89
59939;BME280;45801;51.810;19.444;2023-09-19T11:54:24;98561.64;;;20.38;77.40
59939;BME280;45801;51.810;19.444;2023-09-19T11:56:55;98565.17;;;20.40;77.68
59939;BME280;45801;51.810;19.444;2023-09-19T12:01:53;98562.10;;;20.45;77.09
59939;BME280;45801;51.810;19.444;2023-09-19T12:04:43;98563.70;;;20.46;77.88
59939;BME280;45801;51.810;19.444;2023-09-19T12:07:13;98566.19;;;20.44;77.46
59939;BME280;45801;51.810;19.444;2023-09-19T12:09:44;98567.23;;;20.46;77.23
59939;BME280;45801;51.810;19.444;2023-09-19T12:12:20;98566.02;;;20.45;77.29
59939;BME280;45801;51.810;19.444;2023-09-19T12:14:50;98567.28;;;20.43;77.17
59939;BME280;45801;51.810;19.444;2023-09-19T12:17:17;98569.08;;;20.40;76.77
59939;BME280;45801;51.810;19.444;2023-09-19T12:19:51;98569.99;;;20.35;76.46
59939;BME280;45801;51.810;19.444;2023-09-19T12:22:18;98572.49;;;20.32;76.49
59939;BME280;45801;51.810;19.444;2023-09-19T12:24:47;98576.61;;;20.30;76.41
59939;BME280;45801;51.810;19.444;2023-09-19T12:27:15;98575.58;;;20.26;76.11
59939;BME280;45801;51.810;19.444;2023-09-19T12:29:48;98579.16;;;20.22;76.82
59939;BME280;45801;51.810;19.444;2023-09-19T12:32:16;98578.65;;;20.16;76.88
59939;BME280;45801;51.810;19.444;2023-09-19T12:34:50;98580.98;;;20.11;76.99
59939;BME280;45801;51.810;19.444;2023-09-19T12:37:18;98586.52;;;20.07;77.18
59939;BME280;45801;51.810;19.444;2023-09-19T12:39:50;98586.36;;;20.04;76.61
59939;BME280;45801;51.810;19.444;2023-09-19T12:42:20;98586.54;;;20.04;76.31
59939;BME280;45801;51.810;19.444;2023-09-19T12:44:49;98586.86;;;20.08;76.42
59939;BME280;45801;51.810;19.444;2023-09-19T12:47:18;98587.19;;;20.14;76.47
59939;BME280;45801;51.810;19.444;2023-09-19T12:50:15;98593.02;;;20.21;76.89
59939;BME280;45801;51.810;19.444;2023-09-19T12:52:51;98595.13;;;20.25;76.85
59939;BME280;45801;51.810;19.444;2023-09-19T12:55:27;98593.50;;;20.28;76.52
59939;BME280;45801;51.810;19.444;2023-09-19T12:58:07;98591.35;;;20.32;76.75
59939;BME280;45801;51.810;19.444;2023-09-19T13:00:38;98595.25;;;20.36;76.44
59939;BME280;45801;51.810;19.444;2023-09-19T13:03:24;98596.98;;;20.42;76.23
59939;BME280;45801;51.810;19.444;2023-09-19T13:05:54;98593.40;;;20.46;76.09
59939;BME280;45801;51.810;19.444;2023-09-19T13:08:34;98591.94;;;20.52;75.45
59939;BME280;45801;51.810;19.444;2023-09-19T13:11:12;98591.70;;;20.60;75.07
59939;BME280;45801;51.810;19.444;2023-09-19T13:13:44;98592.76;;;20.65;75.00
59939;BME280;45801;51.810;19.444;2023-09-19T13:16:12;98593.64;;;20.67;72.67
59939;BME280;45801;51.810;19.444;2023-09-19T13:18:42;98596.66;;;20.68;73.34
59939;BME280;45801;51.810;19.444;2023-09-19T13:21:13;98592.39;;;20.66;73.16
59939;BME280;45801;51.810;19.444;2023-09-19T13:23:54;98598.96;;;20.67;72.84
59939;BME280;45801;51.810;19.444;2023-09-19T13:26:25;98596.48;;;20.69;72.22
59939;BME280;45801;51.810;19.444;2023-09-19T13:28:52;98600.73;;;20.72;72.61
59939;BME280;45801;51.810;19.444;2023-09-19T13:31:18;98607.27;;;20.76;73.17
59939;BME280;45801;51.810;19.444;2023-09-19T13:33:46;98601.36;;;20.80;73.37
59939;BME280;45801;51.810;19.444;2023-09-19T13:36:13;98592.43;;;20.85;72.45
59939;BME280;45801;51.810;19.444;2023-09-19T13:38:43;98587.77;;;20.89;71.77
59939;BME280;45801;51.810;19.444;2023-09-19T13:41:10;98593.11;;;20.90;71.86
59939;BME280;45801;51.810;19.444;2023-09-19T13:43:37;98592.02;;;20.91;72.30